sensor_id;sensor_type;location;lat;lon;timestamp;pressure;altitude;pressure_sealevel;temperature;humidity
8039;BME280;4062;49.844;8.120;2024-02-14T00:01:32;99641.81;;;13.55;56.57
8039;BME280;4062;49.844;8.120;2024-02-14T00:03:33;99649.78;;;13.55;56.62
8039;BME280;4062;49.844;8.120;2024-02-14T00:05:34;99640.91;;;13.56;56.63
8039;BME280;4062;49.844;8.120;2024-02-14T00:07:35;99633.88;;;13.55;56.68
8039;BME280;4062;49.844;8.120;2024-02-14T00:09:37;99628.56;;;13.55;56.59
8039;BME280;4062;49.844;8.120;2024-02-14T00:11:38;99620.66;;;13.54;56.63
8039;BME280;4062;49.844;8.120;2024-02-14T00:13:39;99624.16;;;13.54;56.60
8039;BME280;4062;49.844;8.120;2024-02-14T00:15:41;99619.69;;;13.55;56.67
8039;BME280;4062;49.844;8.120;2024-02-14T00:17:42;99621.44;;;13.56;56.73
8039;BME280;4062;49.844;8.120;2024-02-14T00:19:44;99619.69;;;13.55;56.62
8039;BME280;4062;49.844;8.120;2024-02-14T00:21:45;99610.88;;;13.54;56.61
8039;BME280;4062;49.844;8.120;2024-02-14T00:23:46;99617.06;;;13.55;56.56
8039;BME280;4062;49.844;8.120;2024-02-14T00:25:48;99616.19;;;13.54;56.58
8039;BME280;4062;49.844;8.120;2024-02-14T00:27:49;99626.81;;;13.54;56.66
8039;BME280;4062;49.844;8.120;2024-02-14T00:29:51;99621.50;;;13.54;56.64
8039;BME280;4062;49.844;8.120;2024-02-14T00:31:55;99610.94;;;13.53;56.69
8039;BME280;4062;49.844;8.120;2024-02-14T00:33:57;99618.00;;;13.54;56.63
8039;BME280;4062;49.844;8.120;2024-02-14T00:35:58;99613.53;;;13.54;56.60
8039;BME280;4062;49.844;8.120;2024-02-14T00:37:59;99615.34;;;13.54;56.57
8039;BME280;4062;49.844;8.120;2024-02-14T00:40:00;99607.38;;;13.54;56.67
8039;BME280;4062;49.844;8.120;2024-02-14T00:42:03;99610.03;;;13.54;56.67
8039;BME280;4062;49.844;8.120;2024-02-14T00:44:04;99617.09;;;13.53;56.58
8039;BME280;4062;49.844;8.120;2024-02-14T00:46:06;99611.81;;;13.53;56.61
8039;BME280;4062;49.844;8.120;2024-02-14T00:48:07;99606.50;;;13.53;56.68
8039;BME280;4062;49.844;8.120;2024-02-14T00:50:09;99600.31;;;13.53;56.61
8039;BME280;4062;49.844;8.120;2024-02-14T00:52:10;99598.53;;;13.53;56.60
8039;BME280;4062;49.844;8.120;2024-02-14T00:54:12;99592.38;;;13.53;56.69
8039;BME280;4062;49.844;8.120;2024-02-14T00:56:14;99595.88;;;13.53;56.53
8039;BME280;4062;49.844;8.120;2024-02-14T00:58:15;99596.78;;;13.52;56.68
8039;BME280;4062;49.844;8.120;2024-02-14T01:00:16;99588.81;;;13.52;56.59
8039;BME280;4062;49.844;8.120;2024-02-14T01:02:18;99588.81;;;13.52;56.67
8039;BME280;4062;49.844;8.120;2024-02-14T01:04:19;99595.03;;;13.53;56.54
8039;BME280;4062;49.844;8.120;2024-02-14T01:06:20;99587.97;;;13.52;56.62
8039;BME280;4062;49.844;8.120;2024-02-14T01:08:22;99591.47;;;13.52;56.67
8039;BME280;4062;49.844;8.120;2024-02-14T01:10:23;99592.41;;;13.51;56.63
8039;BME280;4062;49.844;8.120;2024-02-14T01:12:24;99595.94;;;13.52;56.69
8039;BME280;4062;49.844;8.120;2024-02-14T01:14:26;99590.63;;;13.52;56.64
8039;BME280;4062;49.844;8.120;2024-02-14T01:16:27;99585.31;;;13.52;56.65
8039;BME280;4062;49.844;8.120;2024-02-14T01:18:28;99589.75;;;13.51;56.63
8039;BME280;4062;49.844;8.120;2024-02-14T01:20:29;99584.44;;;13.51;56.50
8039;BME280;4062;49.844;8.120;2024-02-14T01:22:31;99582.66;;;13.52;56.70
8039;BME280;4062;49.844;8.120;2024-02-14T01:24:39;99582.66;;;13.52;56.67
8039;BME280;4062;49.844;8.120;2024-02-14T01:26:43;99580.00;;;13.52;56.65
8039;BME280;4062;49.844;8.120;2024-02-14T01:28:45;99575.63;;;13.51;56.52
8039;BME280;4062;49.844;8.120;2024-02-14T01:30:46;99580.03;;;13.50;56.63
8039;BME280;4062;49.844;8.120;2024-02-14T01:32:47;99577.38;;;13.50;56.63
8039;BME280;4062;49.844;8.120;2024-02-14T01:34:48;99586.22;;;13.51;56.56
8039;BME280;4062;49.844;8.120;2024-02-14T01:36:50;99577.38;;;13.50;56.66
8039;BME280;4062;49.844;8.120;2024-02-14T01:38:51;99579.13;;;13.51;56.67
8039;BME280;4062;49.844;8.120;2024-02-14T01:40:52;99583.56;;;13.51;56.66
8039;BME280;4062;49.844;8.120;2024-02-14T01:42:54;99582.69;;;13.50;56.63
8039;BME280;4062;49.844;8.120;2024-02-14T01:44:56;99582.69;;;13.50;56.71
8039;BME280;4062;49.844;8.120;2024-02-14T01:46:57;99581.78;;;13.51;56.70
8039;BME280;4062;49.844;8.120;2024-02-14T01:48:59;99583.56;;;13.51;56.69
8039;BME280;4062;49.844;8.120;2024-02-14T01:51:02;99580.03;;;13.50;56.51
8039;BME280;4062;49.844;8.120;2024-02-14T01:53:04;99584.50;;;13.50;56.66
8039;BME280;4062;49.844;8.120;2024-02-14T01:55:06;99580.91;;;13.51;56.69
8039;BME280;4062;49.844;8.120;2024-02-14T01:57:09;99578.28;;;13.51;56.70
8039;BME280;4062;49.844;8.120;2024-02-14T01:59:13;99574.72;;;13.50;56.71
8039;BME280;4062;49.844;8.120;2024-02-14T02:01:16;99566.75;;;13.50;56.66
8039;BME280;4062;49.844;8.120;2024-02-14T02:03:19;99566.75;;;13.50;56.62
8039;BME280;4062;49.844;8.120;2024-02-14T02:05:21;99551.78;;;13.49;56.52
8039;BME280;4062;49.844;8.120;2024-02-14T02:07:22;99547.34;;;13.50;56.74
8039;BME280;4062;49.844;8.120;2024-02-14T02:09:23;99547.34;;;13.50;56.68
8039;BME280;4062;49.844;8.120;2024-02-14T02:11:25;99549.97;;;13.50;56.75
8039;BME280;4062;49.844;8.120;2024-02-14T02:13:47;99545.59;;;13.49;56.64
8039;BME280;4062;49.844;8.120;2024-02-14T02:16:08;99549.13;;;13.49;56.58
8039;BME280;4062;49.844;8.120;2024-02-14T02:18:30;99545.59;;;13.49;56.67
8039;BME280;4062;49.844;8.120;2024-02-14T02:20:51;99549.13;;;13.49;56.59
8039;BME280;4062;49.844;8.120;2024-02-14T02:22:53;99554.44;;;13.49;56.70
8039;BME280;4062;49.844;8.120;2024-02-14T02:25:14;99544.75;;;13.48;56.74
8039;BME280;4062;49.844;8.120;2024-02-14T02:27:35;99545.59;;;13.49;56.65
8039;BME280;4062;49.844;8.120;2024-02-14T02:29:58;99547.34;;;13.50;56.67
8039;BME280;4062;49.844;8.120;2024-02-14T02:32:02;99550.91;;;13.49;56.72
8039;BME280;4062;49.844;8.120;2024-02-14T02:34:03;99559.75;;;13.49;56.78
8039;BME280;4062;49.844;8.120;2024-02-14T02:36:05;99567.72;;;13.49;56.70
8039;BME280;4062;49.844;8.120;2024-02-14T02:38:28;99561.53;;;13.49;56.67
8039;BME280;4062;49.844;8.120;2024-02-14T02:40:49;99561.53;;;13.49;56.60
8039;BME280;4062;49.844;8.120;2024-02-14T02:43:10;99565.97;;;13.48;56.65
8039;BME280;4062;49.844;8.120;2024-02-14T02:45:32;99564.16;;;13.49;56.69
8039;BME280;4062;49.844;8.120;2024-02-14T02:47:53;99561.53;;;13.49;56.67
8039;BME280;4062;49.844;8.120;2024-02-14T02:50:14;99558.88;;;13.49;56.60
8039;BME280;4062;49.844;8.120;2024-02-14T02:52:36;99557.13;;;13.48;56.61
8039;BME280;4062;49.844;8.120;2024-02-14T02:54:57;99559.78;;;13.48;56.67
8039;BME280;4062;49.844;8.120;2024-02-14T02:57:00;99561.53;;;13.49;56.67
8039;BME280;4062;49.844;8.120;2024-02-14T02:59:04;99554.47;;;13.48;56.72
8039;BME280;4062;49.844;8.120;2024-02-14T03:01:09;99553.63;;;13.47;56.62
8039;BME280;4062;49.844;8.120;2024-02-14T03:03:30;99564.22;;;13.47;56.71
8039;BME280;4062;49.844;8.120;2024-02-14T03:05:51;99565.09;;;13.48;56.80
8039;BME280;4062;49.844;8.120;2024-02-14T03:08:06;99568.63;;;13.48;56.67
8039;BME280;4062;49.844;8.120;2024-02-14T03:10:28;99565.09;;;13.48;56.67
8039;BME280;4062;49.844;8.120;2024-02-14T03:12:50;99561.56;;;13.47;56.48
8039;BME280;4062;49.844;8.120;2024-02-14T03:15:12;99564.22;;;13.47;56.67
8039;BME280;4062;49.844;8.120;2024-02-14T03:17:14;99556.28;;;13.47;56.66
8039;BME280;4062;49.844;8.120;2024-02-14T03:19:15;99558.03;;;13.47;56.56
8039;BME280;4062;49.844;8.120;2024-02-14T03:21:16;99561.56;;;13.47;56.69
8039;BME280;4062;49.844;8.120;2024-02-14T03:23:18;99561.56;;;13.47;56.69
8039;BME280;4062;49.844;8.120;2024-02-14T03:25:20;99564.22;;;13.47;56.71
8039;BME280;4062;49.844;8.120;2024-02-14T03:27:32;99556.28;;;13.47;56.62
8039;BME280;4062;49.844;8.120;2024-02-14T03:29:35;99564.22;;;13.47;56.66
8039;BME280;4062;49.844;8.120;2024-02-14T03:31:39;99558.94;;;13.47;56.66
8039;BME280;4062;49.844;8.120;2024-02-14T03:33:42;99558.94;;;13.47;56.63
8039;BME280;4062;49.844;8.120;2024-02-14T03:35:43;99560.69;;;13.47;56.75
8039;BME280;4062;49.844;8.120;2024-02-14T03:37:46;99570.47;;;13.46;56.61
8039;BME280;4062;49.844;8.120;2024-02-14T03:39:53;99564.22;;;13.47;56.61
8039;BME280;4062;49.844;8.120;2024-02-14T03:41:54;99560.69;;;13.47;56.63
8039;BME280;4062;49.844;8.120;2024-02-14T03:43:56;99558.03;;;13.47;56.67
8039;BME280;4062;49.844;8.120;2024-02-14T03:46:01;99563.34;;;13.47;56.68
8039;BME280;4062;49.844;8.120;2024-02-14T03:48:03;99566.00;;;13.47;56.59
8039;BME280;4062;49.844;8.120;2024-02-14T03:50:06;99566.88;;;13.47;56.71
8039;BME280;4062;49.844;8.120;2024-02-14T03:52:08;99573.13;;;13.46;56.60
8039;BME280;4062;49.844;8.120;2024-02-14T03:54:11;99576.63;;;13.47;56.57
8039;BME280;4062;49.844;8.120;2024-02-14T03:56:12;99587.25;;;13.47;56.57
8039;BME280;4062;49.844;8.120;2024-02-14T03:58:15;99588.16;;;13.45;56.63
8039;BME280;4062;49.844;8.120;2024-02-14T04:00:23;99588.16;;;13.45;56.60
8039;BME280;4062;49.844;8.120;2024-02-14T04:02:24;99594.34;;;13.46;56.64
8039;BME280;4062;49.844;8.120;2024-02-14T04:04:29;99599.59;;;13.48;56.71
8039;BME280;4062;49.844;8.120;2024-02-14T04:06:30;99598.78;;;13.45;56.75
8039;BME280;4062;49.844;8.120;2024-02-14T04:08:32;99597.91;;;13.45;56.66
8039;BME280;4062;49.844;8.120;2024-02-14T04:10:34;99599.66;;;13.46;56.92
8039;BME280;4062;49.844;8.120;2024-02-14T04:12:35;99604.97;;;13.46;56.67
8039;BME280;4062;49.844;8.120;2024-02-14T04:14:37;99612.94;;;13.46;56.77
8039;BME280;4062;49.844;8.120;2024-02-14T04:16:38;99615.59;;;13.46;56.68
8039;BME280;4062;49.844;8.120;2024-02-14T04:18:39;99612.03;;;13.45;56.70
8039;BME280;4062;49.844;8.120;2024-02-14T04:20:41;99611.13;;;13.47;56.63
8039;BME280;4062;49.844;8.120;2024-02-14T04:22:42;99612.03;;;13.45;56.66
8039;BME280;4062;49.844;8.120;2024-02-14T04:24:44;99605.81;;;13.47;56.74
8039;BME280;4062;49.844;8.120;2024-02-14T04:26:45;99605.03;;;13.44;56.60
8039;BME280;4062;49.844;8.120;2024-02-14T04:28:49;99608.53;;;13.45;56.70
8039;BME280;4062;49.844;8.120;2024-02-14T04:30:50;99613.84;;;13.45;56.70
8039;BME280;4062;49.844;8.120;2024-02-14T04:32:58;99609.38;;;13.45;56.57
8039;BME280;4062;49.844;8.120;2024-02-14T04:34:59;99608.53;;;13.45;56.64
8039;BME280;4062;49.844;8.120;2024-02-14T04:37:00;99605.03;;;13.44;56.75
8039;BME280;4062;49.844;8.120;2024-02-14T04:39:03;99604.13;;;13.44;56.67
8039;BME280;4062;49.844;8.120;2024-02-14T04:41:04;99605.03;;;13.44;56.71
8039;BME280;4062;49.844;8.120;2024-02-14T04:43:06;99605.03;;;13.44;56.68
8039;BME280;4062;49.844;8.120;2024-02-14T04:45:07;99600.56;;;13.45;56.58
8039;BME280;4062;49.844;8.120;2024-02-14T04:47:26;99592.59;;;13.45;56.70
8039;BME280;4062;49.844;8.120;2024-02-14T04:49:28;99591.75;;;13.44;56.60
8039;BME280;4062;49.844;8.120;2024-02-14T04:51:30;99589.94;;;13.45;56.56
8039;BME280;4062;49.844;8.120;2024-02-14T04:53:32;99596.19;;;13.44;56.57
8039;BME280;4062;49.844;8.120;2024-02-14T04:55:33;99588.22;;;13.44;56.75
8039;BME280;4062;49.844;8.120;2024-02-14T04:57:35;99586.44;;;13.44;56.67
8039;BME280;4062;49.844;8.120;2024-02-14T04:59:38;99586.44;;;13.44;56.61
8039;BME280;4062;49.844;8.120;2024-02-14T05:01:39;99589.09;;;13.44;56.69
8039;BME280;4062;49.844;8.120;2024-02-14T05:03:41;99582.91;;;13.44;56.61
8039;BME280;4062;49.844;8.120;2024-02-14T05:05:43;99578.47;;;13.44;56.65
8039;BME280;4062;49.844;8.120;2024-02-14T05:07:44;99583.78;;;13.44;56.74
8039;BME280;4062;49.844;8.120;2024-02-14T05:09:46;99585.56;;;13.44;56.67
8039;BME280;4062;49.844;8.120;2024-02-14T05:11:49;99585.56;;;13.44;56.63
8039;BME280;4062;49.844;8.120;2024-02-14T05:13:50;99588.22;;;13.44;56.61
8039;BME280;4062;49.844;8.120;2024-02-14T05:15:52;99591.75;;;13.44;56.61
8039;BME280;4062;49.844;8.120;2024-02-14T05:17:53;99601.47;;;13.44;56.70
8039;BME280;4062;49.844;8.120;2024-02-14T05:19:54;99597.09;;;13.43;56.64
8039;BME280;4062;49.844;8.120;2024-02-14T05:21:56;99596.19;;;13.44;56.69
8039;BME280;4062;49.844;8.120;2024-02-14T05:23:57;99593.53;;;13.44;56.62
8039;BME280;4062;49.844;8.120;2024-02-14T05:25:58;99597.06;;;13.44;56.65
8039;BME280;4062;49.844;8.120;2024-02-14T05:27:59;99597.06;;;13.44;56.61
8039;BME280;4062;49.844;8.120;2024-02-14T05:30:04;99586.47;;;13.43;56.72
8039;BME280;4062;49.844;8.120;2024-02-14T05:32:08;99590.00;;;13.43;56.68
8039;BME280;4062;49.844;8.120;2024-02-14T05:34:13;99592.66;;;13.43;56.63
8039;BME280;4062;49.844;8.120;2024-02-14T05:36:14;99598.84;;;13.44;56.71
8039;BME280;4062;49.844;8.120;2024-02-14T05:38:16;99596.19;;;13.44;56.63
8039;BME280;4062;49.844;8.120;2024-02-14T05:40:17;99613.91;;;13.43;56.67
8039;BME280;4062;49.844;8.120;2024-02-14T05:42:19;99616.56;;;13.43;56.65
8039;BME280;4062;49.844;8.120;2024-02-14T05:44:21;99616.56;;;13.43;56.68
8039;BME280;4062;49.844;8.120;2024-02-14T05:46:23;99613.91;;;13.43;56.72
8039;BME280;4062;49.844;8.120;2024-02-14T05:48:24;99621.88;;;13.43;56.65
8039;BME280;4062;49.844;8.120;2024-02-14T05:50:27;99621.88;;;13.43;56.68
8039;BME280;4062;49.844;8.120;2024-02-14T05:52:28;99622.72;;;13.44;56.70
8039;BME280;4062;49.844;8.120;2024-02-14T05:54:29;99622.72;;;13.44;56.62
8039;BME280;4062;49.844;8.120;2024-02-14T05:56:30;99612.16;;;13.42;56.72
8039;BME280;4062;49.844;8.120;2024-02-14T05:58:32;99611.25;;;13.43;56.68
8039;BME280;4062;49.844;8.120;2024-02-14T06:00:33;99603.28;;;13.43;56.74
8039;BME280;4062;49.844;8.120;2024-02-14T06:02:34;99609.50;;;13.42;56.68
8039;BME280;4062;49.844;8.120;2024-02-14T06:04:36;99606.84;;;13.42;56.44
8039;BME280;4062;49.844;8.120;2024-02-14T06:06:37;99605.06;;;13.43;56.59
8039;BME280;4062;49.844;8.120;2024-02-14T06:08:39;99603.28;;;13.43;56.61
8039;BME280;4062;49.844;8.120;2024-02-14T06:10:40;99603.28;;;13.43;56.63
8039;BME280;4062;49.844;8.120;2024-02-14T06:12:43;99607.63;;;13.46;56.73
8039;BME280;4062;49.844;8.120;2024-02-14T06:14:50;99612.94;;;13.46;56.48
8039;BME280;4062;49.844;8.120;2024-02-14T06:16:51;99614.66;;;13.47;56.61
8039;BME280;4062;49.844;8.120;2024-02-14T06:18:53;99616.41;;;13.48;56.52
8039;BME280;4062;49.844;8.120;2024-02-14T06:20:54;99616.41;;;13.48;56.58
8039;BME280;4062;49.844;8.120;2024-02-14T06:22:55;99621.66;;;13.50;56.66
8039;BME280;4062;49.844;8.120;2024-02-14T06:24:57;99626.91;;;13.51;56.60
8039;BME280;4062;49.844;8.120;2024-02-14T06:26:58;99618.94;;;13.51;56.67
8039;BME280;4062;49.844;8.120;2024-02-14T06:28:59;99613.59;;;13.53;56.64
8039;BME280;4062;49.844;8.120;2024-02-14T06:31:01;99619.75;;;13.53;56.67
8039;BME280;4062;49.844;8.120;2024-02-14T06:33:05;99620.66;;;13.54;56.80
8039;BME280;4062;49.844;8.120;2024-02-14T06:35:06;99614.41;;;13.55;56.80
8039;BME280;4062;49.844;8.120;2024-02-14T06:37:07;99618.78;;;13.56;56.75
8039;BME280;4062;49.844;8.120;2024-02-14T06:39:09;99615.22;;;13.57;56.89
8039;BME280;4062;49.844;8.120;2024-02-14T06:41:10;99614.31;;;13.58;56.68
8039;BME280;4062;49.844;8.120;2024-02-14T06:43:12;99621.41;;;13.57;56.82
8039;BME280;4062;49.844;8.120;2024-02-14T06:45:13;99631.13;;;13.58;56.87
8039;BME280;4062;49.844;8.120;2024-02-14T06:47:16;99633.72;;;13.60;56.69
8039;BME280;4062;49.844;8.120;2024-02-14T06:49:17;99640.78;;;13.59;56.88
8039;BME280;4062;49.844;8.120;2024-02-14T06:51:19;99642.53;;;13.60;56.65
8039;BME280;4062;49.844;8.120;2024-02-14T06:53:22;99644.34;;;13.60;56.80
8039;BME280;4062;49.844;8.120;2024-02-14T06:55:23;99640.75;;;13.61;56.83
8039;BME280;4062;49.844;8.120;2024-02-14T06:57:25;99643.41;;;13.61;56.82
8039;BME280;4062;49.844;8.120;2024-02-14T06:59:29;99652.22;;;13.62;56.81
8039;BME280;4062;49.844;8.120;2024-02-14T07:01:31;99650.47;;;13.62;56.76
8039;BME280;4062;49.844;8.120;2024-02-14T07:03:32;99653.13;;;13.62;56.68
8039;BME280;4062;49.844;8.120;2024-02-14T07:05:33;99650.47;;;13.62;56.76
8039;BME280;4062;49.844;8.120;2024-02-14T07:07:34;99650.47;;;13.62;56.70
8039;BME280;4062;49.844;8.120;2024-02-14T07:09:37;99655.72;;;13.64;56.70
8039;BME280;4062;49.844;8.120;2024-02-14T07:11:39;99660.16;;;13.63;56.67
8039;BME280;4062;49.844;8.120;2024-02-14T07:13:41;99660.16;;;13.63;56.61
8039;BME280;4062;49.844;8.120;2024-02-14T07:15:42;99667.25;;;13.63;56.77
8039;BME280;4062;49.844;8.120;2024-02-14T07:17:43;99669.84;;;13.64;56.77
8039;BME280;4062;49.844;8.120;2024-02-14T07:19:45;99676.94;;;13.64;56.60
8039;BME280;4062;49.844;8.120;2024-02-14T07:21:50;99680.47;;;13.64;56.59
8039;BME280;4062;49.844;8.120;2024-02-14T07:23:51;99683.13;;;13.64;56.61
8039;BME280;4062;49.844;8.120;2024-02-14T07:25:54;99679.56;;;13.65;56.71
8039;BME280;4062;49.844;8.120;2024-02-14T07:27:56;99684.84;;;13.65;56.67
8039;BME280;4062;49.844;8.120;2024-02-14T07:29:58;99676.03;;;13.65;56.50
8039;BME280;4062;49.844;8.120;2024-02-14T07:32:03;99676.03;;;13.65;56.59
8039;BME280;4062;49.844;8.120;2024-02-14T07:34:07;99681.34;;;13.65;56.48
8039;BME280;4062;49.844;8.120;2024-02-14T07:36:14;99677.81;;;13.64;56.67
8039;BME280;4062;49.844;8.120;2024-02-14T07:38:16;99681.34;;;13.65;56.58
8039;BME280;4062;49.844;8.120;2024-02-14T07:40:20;99688.44;;;13.64;56.48
8039;BME280;4062;49.844;8.120;2024-02-14T07:42:42;99688.44;;;13.64;56.58
8039;BME280;4062;49.844;8.120;2024-02-14T07:44:44;99685.75;;;13.66;56.55
8039;BME280;4062;49.844;8.120;2024-02-14T07:46:50;99693.72;;;13.66;56.68
8039;BME280;4062;49.844;8.120;2024-02-14T07:48:51;99689.31;;;13.65;56.55
8039;BME280;4062;49.844;8.120;2024-02-14T07:50:55;99686.66;;;13.65;56.67
8039;BME280;4062;49.844;8.120;2024-02-14T07:52:57;99685.78;;;13.64;56.53
8039;BME280;4062;49.844;8.120;2024-02-14T07:54:59;99691.06;;;13.66;56.60
8039;BME280;4062;49.844;8.120;2024-02-14T07:57:01;99692.81;;;13.65;56.56
8039;BME280;4062;49.844;8.120;2024-02-14T07:59:03;99697.28;;;13.65;56.49
8039;BME280;4062;49.844;8.120;2024-02-14T08:01:07;99701.69;;;13.64;56.50
8039;BME280;4062;49.844;8.120;2024-02-14T08:03:09;99697.28;;;13.65;56.53
8039;BME280;4062;49.844;8.120;2024-02-14T08:05:10;99700.78;;;13.65;56.49
8039;BME280;4062;49.844;8.120;2024-02-14T08:07:11;99704.34;;;13.64;56.62
8039;BME280;4062;49.844;8.120;2024-02-14T08:09:13;99706.09;;;13.65;56.54
8039;BME280;4062;49.844;8.120;2024-02-14T08:11:15;99704.34;;;13.64;56.53
8039;BME280;4062;49.844;8.120;2024-02-14T08:13:16;99705.25;;;13.65;56.55
8039;BME280;4062;49.844;8.120;2024-02-14T08:15:18;99709.66;;;13.64;56.67
8039;BME280;4062;49.844;8.120;2024-02-14T08:17:20;99701.69;;;13.64;56.60
8039;BME280;4062;49.844;8.120;2024-02-14T08:19:22;99707.00;;;13.64;56.50
8039;BME280;4062;49.844;8.120;2024-02-14T08:21:23;99706.09;;;13.65;56.63
8039;BME280;4062;49.844;8.120;2024-02-14T08:23:24;99702.59;;;13.65;56.56
8039;BME280;4062;49.844;8.120;2024-02-14T08:25:26;99709.66;;;13.64;56.67
8039;BME280;4062;49.844;8.120;2024-02-14T08:27:27;99707.91;;;13.65;56.59
8039;BME280;4062;49.844;8.120;2024-02-14T08:29:29;99702.59;;;13.65;56.60
8039;BME280;4062;49.844;8.120;2024-02-14T08:31:30;99696.41;;;13.64;56.59
8039;BME280;4062;49.844;8.120;2024-02-14T08:33:32;99689.31;;;13.65;56.59
8039;BME280;4062;49.844;8.120;2024-02-14T08:35:33;99692.03;;;13.63;56.55
8039;BME280;4062;49.844;8.120;2024-02-14T08:37:34;99695.53;;;13.64;56.46
8039;BME280;4062;49.844;8.120;2024-02-14T08:39:37;99694.69;;;13.63;56.61
8039;BME280;4062;49.844;8.120;2024-02-14T08:41:44;99704.34;;;13.64;56.54
8039;BME280;4062;49.844;8.120;2024-02-14T08:43:47;99700.91;;;13.62;56.48
8039;BME280;4062;49.844;8.120;2024-02-14T08:45:49;99712.38;;;13.63;56.56
8039;BME280;4062;49.844;8.120;2024-02-14T08:47:50;99700.91;;;13.62;56.56
8039;BME280;4062;49.844;8.120;2024-02-14T08:49:51;99698.25;;;13.62;56.48
8039;BME280;4062;49.844;8.120;2024-02-14T08:51:53;99694.72;;;13.62;56.58
8039;BME280;4062;49.844;8.120;2024-02-14T08:53:54;99703.56;;;13.62;56.55
8039;BME280;4062;49.844;8.120;2024-02-14T08:55:58;99697.38;;;13.62;56.57
8039;BME280;4062;49.844;8.120;2024-02-14T08:57:59;99694.72;;;13.62;56.49
8039;BME280;4062;49.844;8.120;2024-02-14T09:00:00;99686.75;;;13.62;56.54
8039;BME280;4062;49.844;8.120;2024-02-14T09:02:05;99699.16;;;13.61;56.43
8039;BME280;4062;49.844;8.120;2024-02-14T09:04:06;99697.38;;;13.62;56.64
8039;BME280;4062;49.844;8.120;2024-02-14T09:06:07;99703.59;;;13.60;56.52
8039;BME280;4062;49.844;8.120;2024-02-14T09:08:09;99710.63;;;13.62;56.62
8039;BME280;4062;49.844;8.120;2024-02-14T09:10:11;99712.44;;;13.61;56.61
8039;BME280;4062;49.844;8.120;2024-02-14T09:12:13;99721.25;;;13.62;56.57
8039;BME280;4062;49.844;8.120;2024-02-14T09:14:15;99718.59;;;13.62;56.40
8039;BME280;4062;49.844;8.120;2024-02-14T09:16:16;99723.06;;;13.61;56.55
8039;BME280;4062;49.844;8.120;2024-02-14T09:18:17;99716.88;;;13.60;56.56
8039;BME280;4062;49.844;8.120;2024-02-14T09:20:20;99718.66;;;13.60;56.44
8039;BME280;4062;49.844;8.120;2024-02-14T09:22:21;99717.75;;;13.61;56.54
8039;BME280;4062;49.844;8.120;2024-02-14T09:24:22;99713.34;;;13.60;56.50
8039;BME280;4062;49.844;8.120;2024-02-14T09:26:23;99718.66;;;13.60;56.59
8039;BME280;4062;49.844;8.120;2024-02-14T09:28:25;99711.56;;;13.60;56.50
8039;BME280;4062;49.844;8.120;2024-02-14T09:30:26;99715.13;;;13.59;56.64
8039;BME280;4062;49.844;8.120;2024-02-14T09:32:27;99713.34;;;13.60;56.54
8039;BME280;4062;49.844;8.120;2024-02-14T09:34:29;99716.00;;;13.60;56.60
8039;BME280;4062;49.844;8.120;2024-02-14T09:36:30;99723.97;;;13.60;56.50
8039;BME280;4062;49.844;8.120;2024-02-14T09:38:31;99722.19;;;13.60;56.46
8039;BME280;4062;49.844;8.120;2024-02-14T09:40:33;99718.66;;;13.60;56.58
8039;BME280;4062;49.844;8.120;2024-02-14T09:43:01;99718.66;;;13.60;56.53
8039;BME280;4062;49.844;8.120;2024-02-14T09:45:05;99717.75;;;13.61;56.44
8039;BME280;4062;49.844;8.120;2024-02-14T09:47:08;99710.69;;;13.60;56.67
8039;BME280;4062;49.844;8.120;2024-02-14T09:49:10;99716.88;;;13.60;56.48
8039;BME280;4062;49.844;8.120;2024-02-14T09:51:13;99718.66;;;13.60;56.63
8039;BME280;4062;49.844;8.120;2024-02-14T09:53:15;99719.53;;;13.60;56.57
8039;BME280;4062;49.844;8.120;2024-02-14T09:55:17;99721.25;;;13.62;56.58
8039;BME280;4062;49.844;8.120;2024-02-14T09:57:20;99721.25;;;13.62;56.52
8039;BME280;4062;49.844;8.120;2024-02-14T09:59:31;99715.94;;;13.62;56.64
8039;BME280;4062;49.844;8.120;2024-02-14T10:01:33;99720.41;;;13.61;56.55
8039;BME280;4062;49.844;8.120;2024-02-14T10:03:34;99720.41;;;13.61;56.46
8039;BME280;4062;49.844;8.120;2024-02-14T10:05:36;99728.38;;;13.61;56.52
8039;BME280;4062;49.844;8.120;2024-02-14T10:07:44;99726.56;;;13.62;56.35
8039;BME280;4062;49.844;8.120;2024-02-14T10:09:45;99725.72;;;13.61;56.61
8039;BME280;4062;49.844;8.120;2024-02-14T10:11:47;99727.47;;;13.62;56.50
8039;BME280;4062;49.844;8.120;2024-02-14T10:15:58;99740.72;;;13.62;56.75
8039;BME280;4062;49.844;8.120;2024-02-14T10:18:00;99727.47;;;13.62;56.43
8039;BME280;4062;49.844;8.120;2024-02-14T10:20:02;99728.38;;;13.61;56.55
8039;BME280;4062;49.844;8.120;2024-02-14T10:22:07;99733.69;;;13.61;56.39
8039;BME280;4062;49.844;8.120;2024-02-14T10:24:09;99734.53;;;13.62;56.49
8039;BME280;4062;49.844;8.120;2024-02-14T10:26:11;99739.84;;;13.62;56.52
8039;BME280;4062;49.844;8.120;2024-02-14T10:28:13;99742.50;;;13.62;56.36
8039;BME280;4062;49.844;8.120;2024-02-14T10:30:17;99751.38;;;13.60;56.35
8039;BME280;4062;49.844;8.120;2024-02-14T10:32:18;99752.28;;;13.61;56.56
8039;BME280;4062;49.844;8.120;2024-02-14T10:34:25;99758.44;;;13.62;56.43
8039;BME280;4062;49.844;8.120;2024-02-14T10:36:26;99762.00;;;13.60;56.35
8039;BME280;4062;49.844;8.120;2024-02-14T10:38:30;99763.81;;;13.60;56.42
8039;BME280;4062;49.844;8.120;2024-02-14T10:40:33;99750.53;;;13.60;56.51
8039;BME280;4062;49.844;8.120;2024-02-14T10:42:35;99756.69;;;13.60;56.42
8039;BME280;4062;49.844;8.120;2024-02-14T10:44:36;99757.56;;;13.61;56.55
8039;BME280;4062;49.844;8.120;2024-02-14T10:46:39;99753.19;;;13.60;56.45
8039;BME280;4062;49.844;8.120;2024-02-14T10:48:41;99749.63;;;13.59;56.50
8039;BME280;4062;49.844;8.120;2024-02-14T10:50:43;99754.94;;;13.59;56.53
8039;BME280;4062;49.844;8.120;2024-02-14T10:52:48;99754.09;;;13.59;56.30
8039;BME280;4062;49.844;8.120;2024-02-14T10:54:55;99766.47;;;13.60;56.54
8039;BME280;4062;49.844;8.120;2024-02-14T10:57:04;99766.47;;;13.60;56.39
8039;BME280;4062;49.844;8.120;2024-02-14T10:59:09;99756.75;;;13.59;56.49
8039;BME280;4062;49.844;8.120;2024-02-14T11:01:13;99751.44;;;13.59;56.47
8039;BME280;4062;49.844;8.120;2024-02-14T11:03:16;99748.78;;;13.59;56.54
8039;BME280;4062;49.844;8.120;2024-02-14T11:05:20;99748.78;;;13.59;56.71
8039;BME280;4062;49.844;8.120;2024-02-14T11:07:28;99753.25;;;13.58;56.59
8039;BME280;4062;49.844;8.120;2024-02-14T11:09:33;99740.81;;;13.59;56.54
8039;BME280;4062;49.844;8.120;2024-02-14T11:11:37;99742.63;;;13.58;56.64
8039;BME280;4062;49.844;8.120;2024-02-14T11:13:38;99745.28;;;13.58;56.53
8039;BME280;4062;49.844;8.120;2024-02-14T11:15:45;99740.81;;;13.59;56.63